sensor_id;sensor_type;location;lat;lon;timestamp;temperature;humidity
15274;DHT22;7738;49.532;11.156;2022-12-18T00:00:50;-9.80;99.90
15274;DHT22;7738;49.532;11.156;2022-12-18T00:03:20;-9.80;99.90
15274;DHT22;7738;49.532;11.156;2022-12-18T00:05:51;-9.70;99.90
15274;DHT22;7738;49.532;11.156;2022-12-18T00:08:21;-10.00;99.90
15274;DHT22;7738;49.532;11.156;2022-12-18T00:10:54;-10.00;99.90
15274;DHT22;7738;49.532;11.156;2022-12-18T00:13:27;-10.20;99.90
15274;DHT22;7738;49.532;11.156;2022-12-18T00:16:02;-10.20;99.90
15274;DHT22;7738;49.532;11.156;2022-12-18T00:18:32;-10.20;99.90
15274;DHT22;7738;49.532;11.156;2022-12-18T00:21:05;-10.30;99.90
15274;DHT22;7738;49.532;11.156;2022-12-18T00:23:36;-10.60;99.90
15274;DHT22;7738;49.532;11.156;2022-12-18T00:26:15;-10.80;99.90
15274;DHT22;7738;49.532;11.156;2022-12-18T00:28:46;-10.80;99.90
15274;DHT22;7738;49.532;11.156;2022-12-18T00:31:18;-10.80;99.90
15274;DHT22;7738;49.532;11.156;2022-12-18T00:33:49;-10.80;99.90
15274;DHT22;7738;49.532;11.156;2022-12-18T00:36:23;-10.70;99.90
15274;DHT22;7738;49.532;11.156;2022-12-18T00:38:54;-10.70;99.90
15274;DHT22;7738;49.532;11.156;2022-12-18T00:41:27;-10.70;99.90
15274;DHT22;7738;49.532;11.156;2022-12-18T00:44:11;-10.60;99.90
15274;DHT22;7738;49.532;11.156;2022-12-18T00:46:42;-10.30;99.90
15274;DHT22;7738;49.532;11.156;2022-12-18T00:49:12;-10.30;99.90
15274;DHT22;7738;49.532;11.156;2022-12-18T00:51:42;-10.10;99.90
15274;DHT22;7738;49.532;11.156;2022-12-18T00:54:13;-10.10;99.90
15274;DHT22;7738;49.532;11.156;2022-12-18T00:56:46;-10.00;99.90
15274;DHT22;7738;49.532;11.156;2022-12-18T00:59:17;-9.90;99.90
15274;DHT22;7738;49.532;11.156;2022-12-18T01:01:47;-9.90;99.90
15274;DHT22;7738;49.532;11.156;2022-12-18T01:04:19;-9.80;99.90
15274;DHT22;7738;49.532;11.156;2022-12-18T01:06:49;-9.70;99.90
15274;DHT22;7738;49.532;11.156;2022-12-18T01:09:19;-9.60;99.90
15274;DHT22;7738;49.532;11.156;2022-12-18T01:11:54;-9.60;99.90
15274;DHT22;7738;49.532;11.156;2022-12-18T01:14:24;-9.70;99.90
15274;DHT22;7738;49.532;11.156;2022-12-18T01:16:54;-9.80;99.90
15274;DHT22;7738;49.532;11.156;2022-12-18T01:19:24;-9.80;99.90
15274;DHT22;7738;49.532;11.156;2022-12-18T01:21:54;-9.90;99.90
15274;DHT22;7738;49.532;11.156;2022-12-18T01:24:24;-9.80;99.90
15274;DHT22;7738;49.532;11.156;2022-12-18T01:26:57;-9.90;99.90
15274;DHT22;7738;49.532;11.156;2022-12-18T01:29:26;-9.80;99.90
15274;DHT22;7738;49.532;11.156;2022-12-18T01:31:56;-9.80;99.90
15274;DHT22;7738;49.532;11.156;2022-12-18T01:34:29;-9.90;99.90
15274;DHT22;7738;49.532;11.156;2022-12-18T01:37:02;-9.90;99.90
15274;DHT22;7738;49.532;11.156;2022-12-18T01:39:32;-10.00;99.90
15274;DHT22;7738;49.532;11.156;2022-12-18T01:42:12;-10.00;99.90
15274;DHT22;7738;49.532;11.156;2022-12-18T01:45:24;-10.00;99.90
15274;DHT22;7738;49.532;11.156;2022-12-18T01:47:56;-10.00;99.90
15274;DHT22;7738;49.532;11.156;2022-12-18T01:50:31;-10.00;99.90
15274;DHT22;7738;49.532;11.156;2022-12-18T01:53:05;-10.00;99.90
15274;DHT22;7738;49.532;11.156;2022-12-18T01:55:38;-10.10;99.90
15274;DHT22;7738;49.532;11.156;2022-12-18T01:58:12;-10.20;99.90
15274;DHT22;7738;49.532;11.156;2022-12-18T02:00:42;-10.20;99.90
15274;DHT22;7738;49.532;11.156;2022-12-18T02:03:13;-8.70;99.90
15274;DHT22;7738;49.532;11.156;2022-12-18T02:05:47;-10.20;99.90
15274;DHT22;7738;49.532;11.156;2022-12-18T02:08:23;-10.20;99.90
15274;DHT22;7738;49.532;11.156;2022-12-18T02:10:57;-10.20;99.90
15274;DHT22;7738;49.532;11.156;2022-12-18T02:13:40;-10.30;99.90
15274;DHT22;7738;49.532;11.156;2022-12-18T02:16:19;-10.30;99.90
15274;DHT22;7738;49.532;11.156;2022-12-18T02:18:57;-10.30;99.90
15274;DHT22;7738;49.532;11.156;2022-12-18T02:21:36;-10.30;99.90
15274;DHT22;7738;49.532;11.156;2022-12-18T02:24:17;-9.20;99.90
15274;DHT22;7738;49.532;11.156;2022-12-18T02:26:56;-10.40;99.90
15274;DHT22;7738;49.532;11.156;2022-12-18T02:29:32;-10.30;99.90
15274;DHT22;7738;49.532;11.156;2022-12-18T02:32:06;-10.30;99.90
15274;DHT22;7738;49.532;11.156;2022-12-18T02:34:39;-10.40;99.90
15274;DHT22;7738;49.532;11.156;2022-12-18T02:37:16;-10.70;99.90
15274;DHT22;7738;49.532;11.156;2022-12-18T02:39:49;-11.00;99.90
15274;DHT22;7738;49.532;11.156;2022-12-18T02:42:23;-11.20;99.90
15274;DHT22;7738;49.532;11.156;2022-12-18T02:44:56;-11.10;99.90
15274;DHT22;7738;49.532;11.156;2022-12-18T02:47:30;-11.00;99.90
15274;DHT22;7738;49.532;11.156;2022-12-18T02:50:07;-10.80;99.90
15274;DHT22;7738;49.532;11.156;2022-12-18T02:52:49;-10.70;99.90
15274;DHT22;7738;49.532;11.156;2022-12-18T02:55:33;-10.80;99.90
15274;DHT22;7738;49.532;11.156;2022-12-18T02:58:16;-10.60;99.90
15274;DHT22;7738;49.532;11.156;2022-12-18T03:00:57;-10.60;99.90
15274;DHT22;7738;49.532;11.156;2022-12-18T03:03:31;-10.60;99.90
15274;DHT22;7738;49.532;11.156;2022-12-18T03:06:07;-10.70;99.90
15274;DHT22;7738;49.532;11.156;2022-12-18T03:08:42;-10.70;99.90
15274;DHT22;7738;49.532;11.156;2022-12-18T03:11:14;-10.60;99.90
15274;DHT22;7738;49.532;11.156;2022-12-18T03:14:10;-10.60;99.90
15274;DHT22;7738;49.532;11.156;2022-12-18T03:16:44;-10.60;99.90
15274;DHT22;7738;49.532;11.156;2022-12-18T03:19:16;-10.60;99.90
15274;DHT22;7738;49.532;11.156;2022-12-18T03:21:53;-10.60;99.90
15274;DHT22;7738;49.532;11.156;2022-12-18T03:24:26;-10.70;99.90
15274;DHT22;7738;49.532;11.156;2022-12-18T03:27:00;-10.70;99.90
15274;DHT22;7738;49.532;11.156;2022-12-18T03:29:38;-10.70;99.90
15274;DHT22;7738;49.532;11.156;2022-12-18T03:32:17;-10.60;99.90
15274;DHT22;7738;49.532;11.156;2022-12-18T03:34:52;-10.60;99.90
15274;DHT22;7738;49.532;11.156;2022-12-18T03:37:23;-10.70;99.90
15274;DHT22;7738;49.532;11.156;2022-12-18T03:39:53;-10.70;99.90
15274;DHT22;7738;49.532;11.156;2022-12-18T03:42:27;-10.70;99.90
15274;DHT22;7738;49.532;11.156;2022-12-18T03:45:12;-8.00;99.90
15274;DHT22;7738;49.532;11.156;2022-12-18T03:47:53;-10.60;99.90
15274;DHT22;7738;49.532;11.156;2022-12-18T03:50:37;-10.60;99.90
15274;DHT22;7738;49.532;11.156;2022-12-18T03:53:18;-10.60;99.90
15274;DHT22;7738;49.532;11.156;2022-12-18T03:55:53;-10.60;99.90
15274;DHT22;7738;49.532;11.156;2022-12-18T03:58:31;-10.50;99.90
15274;DHT22;7738;49.532;11.156;2022-12-18T04:01:28;-10.40;99.90
15274;DHT22;7738;49.532;11.156;2022-12-18T04:04:00;-10.40;99.90
15274;DHT22;7738;49.532;11.156;2022-12-18T04:06:34;-10.30;99.90
15274;DHT22;7738;49.532;11.156;2022-12-18T04:09:05;-10.20;99.90
15274;DHT22;7738;49.532;11.156;2022-12-18T04:11:39;-10.10;99.90
15274;DHT22;7738;49.532;11.156;2022-12-18T04:14:14;-10.10;99.90
15274;DHT22;7738;49.532;11.156;2022-12-18T04:16:53;-10.20;99.90
15274;DHT22;7738;49.532;11.156;2022-12-18T04:19:29;-10.20;99.90
15274;DHT22;7738;49.532;11.156;2022-12-18T04:22:01;-10.20;99.90
15274;DHT22;7738;49.532;11.156;2022-12-18T04:24:37;-10.30;99.90
15274;DHT22;7738;49.532;11.156;2022-12-18T04:27:17;-10.30;99.90
15274;DHT22;7738;49.532;11.156;2022-12-18T04:29:49;-10.30;99.90
15274;DHT22;7738;49.532;11.156;2022-12-18T04:32:21;-10.00;99.90
15274;DHT22;7738;49.532;11.156;2022-12-18T04:34:51;-10.20;99.90
15274;DHT22;7738;49.532;11.156;2022-12-18T04:37:21;-10.10;99.90
15274;DHT22;7738;49.532;11.156;2022-12-18T04:39:51;-10.10;99.90
15274;DHT22;7738;49.532;11.156;2022-12-18T04:42:30;-10.00;99.90
15274;DHT22;7738;49.532;11.156;2022-12-18T04:45:00;-9.90;99.90
15274;DHT22;7738;49.532;11.156;2022-12-18T04:47:33;-9.90;99.90
15274;DHT22;7738;49.532;11.156;2022-12-18T04:50:04;-9.90;99.90
15274;DHT22;7738;49.532;11.156;2022-12-18T04:52:34;-9.90;99.90
15274;DHT22;7738;49.532;11.156;2022-12-18T04:55:05;-9.80;99.90
15274;DHT22;7738;49.532;11.156;2022-12-18T04:57:35;-9.80;99.90
15274;DHT22;7738;49.532;11.156;2022-12-18T05:00:07;-9.80;99.90
15274;DHT22;7738;49.532;11.156;2022-12-18T05:02:39;-9.70;99.90
15274;DHT22;7738;49.532;11.156;2022-12-18T05:05:10;-9.70;99.90
15274;DHT22;7738;49.532;11.156;2022-12-18T05:07:40;-9.60;99.90
15274;DHT22;7738;49.532;11.156;2022-12-18T05:10:10;-9.60;99.90
15274;DHT22;7738;49.532;11.156;2022-12-18T05:12:40;-9.50;99.90
15274;DHT22;7738;49.532;11.156;2022-12-18T05:15:22;-9.40;99.90
15274;DHT22;7738;49.532;11.156;2022-12-18T05:17:55;-9.40;99.90
15274;DHT22;7738;49.532;11.156;2022-12-18T05:20:26;-8.60;99.90
15274;DHT22;7738;49.532;11.156;2022-12-18T05:22:56;-8.60;99.90
15274;DHT22;7738;49.532;11.156;2022-12-18T05:25:26;-9.30;99.90
15274;DHT22;7738;49.532;11.156;2022-12-18T05:27:57;-9.30;99.90
15274;DHT22;7738;49.532;11.156;2022-12-18T05:30:27;-9.30;99.90
15274;DHT22;7738;49.532;11.156;2022-12-18T05:32:59;-9.20;99.90
15274;DHT22;7738;49.532;11.156;2022-12-18T05:35:29;-9.20;99.90
15274;DHT22;7738;49.532;11.156;2022-12-18T05:37:59;-9.20;99.90
15274;DHT22;7738;49.532;11.156;2022-12-18T05:40:29;-9.20;99.90
15274;DHT22;7738;49.532;11.156;2022-12-18T05:42:59;-9.20;99.90
15274;DHT22;7738;49.532;11.156;2022-12-18T05:45:29;-9.20;99.90
15274;DHT22;7738;49.532;11.156;2022-12-18T05:48:02;-9.10;99.90
15274;DHT22;7738;49.532;11.156;2022-12-18T05:50:34;-8.50;99.90
15274;DHT22;7738;49.532;11.156;2022-12-18T05:53:05;-9.20;99.90
15274;DHT22;7738;49.532;11.156;2022-12-18T05:55:36;-9.10;99.90
15274;DHT22;7738;49.532;11.156;2022-12-18T05:58:07;-9.00;99.90
15274;DHT22;7738;49.532;11.156;2022-12-18T06:00:39;-9.00;99.90
15274;DHT22;7738;49.532;11.156;2022-12-18T06:03:13;-9.10;99.90
15274;DHT22;7738;49.532;11.156;2022-12-18T06:05:44;-9.00;99.90
15274;DHT22;7738;49.532;11.156;2022-12-18T06:08:14;-9.00;99.90
15274;DHT22;7738;49.532;11.156;2022-12-18T06:10:50;-9.10;99.90
15274;DHT22;7738;49.532;11.156;2022-12-18T06:13:21;-9.00;99.90
15274;DHT22;7738;49.532;11.156;2022-12-18T06:15:51;-7.90;99.90
15274;DHT22;7738;49.532;11.156;2022-12-18T06:18:23;-9.10;99.90
15274;DHT22;7738;49.532;11.156;2022-12-18T06:20:56;-9.00;99.90
15274;DHT22;7738;49.532;11.156;2022-12-18T06:23:26;-9.00;99.90
15274;DHT22;7738;49.532;11.156;2022-12-18T06:25:57;-9.00;99.90
15274;DHT22;7738;49.532;11.156;2022-12-18T06:28:27;-7.70;99.90
15274;DHT22;7738;49.532;11.156;2022-12-18T06:30:58;-8.90;99.90
15274;DHT22;7738;49.532;11.156;2022-12-18T06:33:31;-8.90;99.90
15274;DHT22;7738;49.532;11.156;2022-12-18T06:36:03;-8.80;99.90
15274;DHT22;7738;49.532;11.156;2022-12-18T06:38:34;-8.70;99.90
15274;DHT22;7738;49.532;11.156;2022-12-18T06:41:06;-8.70;99.90
15274;DHT22;7738;49.532;11.156;2022-12-18T06:43:36;-8.40;99.90
15274;DHT22;7738;49.532;11.156;2022-12-18T06:46:08;-8.70;99.90
15274;DHT22;7738;49.532;11.156;2022-12-18T06:48:41;-8.70;99.90
15274;DHT22;7738;49.532;11.156;2022-12-18T06:51:11;-8.70;99.90
15274;DHT22;7738;49.532;11.156;2022-12-18T06:53:41;-8.70;99.90
15274;DHT22;7738;49.532;11.156;2022-12-18T06:56:11;-8.70;99.90
15274;DHT22;7738;49.532;11.156;2022-12-18T06:58:41;-8.60;99.90
15274;DHT22;7738;49.532;11.156;2022-12-18T07:01:12;-8.60;99.90
15274;DHT22;7738;49.532;11.156;2022-12-18T07:03:45;-8.60;99.90
15274;DHT22;7738;49.532;11.156;2022-12-18T07:06:19;-8.60;99.90
15274;DHT22;7738;49.532;11.156;2022-12-18T07:08:50;-8.50;99.90
15274;DHT22;7738;49.532;11.156;2022-12-18T07:11:20;-8.50;99.90
15274;DHT22;7738;49.532;11.156;2022-12-18T07:13:50;-8.40;99.90
15274;DHT22;7738;49.532;11.156;2022-12-18T07:16:22;-8.40;99.90
15274;DHT22;7738;49.532;11.156;2022-12-18T07:18:55;-8.40;99.90
15274;DHT22;7738;49.532;11.156;2022-12-18T07:21:25;-8.40;99.90
15274;DHT22;7738;49.532;11.156;2022-12-18T07:23:55;-8.40;99.90
15274;DHT22;7738;49.532;11.156;2022-12-18T07:26:26;-8.30;99.90
15274;DHT22;7738;49.532;11.156;2022-12-18T07:28:56;-8.30;99.90
15274;DHT22;7738;49.532;11.156;2022-12-18T07:31:27;-8.20;99.90
15274;DHT22;7738;49.532;11.156;2022-12-18T07:33:59;-7.50;99.90
15274;DHT22;7738;49.532;11.156;2022-12-18T07:36:29;-8.10;99.90
15274;DHT22;7738;49.532;11.156;2022-12-18T07:38:59;-8.20;99.90
15274;DHT22;7738;49.532;11.156;2022-12-18T07:41:29;-8.10;99.90
15274;DHT22;7738;49.532;11.156;2022-12-18T07:44:09;-7.90;99.90
15274;DHT22;7738;49.532;11.156;2022-12-18T07:46:39;-7.80;99.90
15274;DHT22;7738;49.532;11.156;2022-12-18T07:49:12;-7.90;99.90
15274;DHT22;7738;49.532;11.156;2022-12-18T07:51:42;-7.80;99.90
15274;DHT22;7738;49.532;11.156;2022-12-18T07:54:15;-7.80;99.90
15274;DHT22;7738;49.532;11.156;2022-12-18T07:56:46;-7.80;99.90
15274;DHT22;7738;49.532;11.156;2022-12-18T07:59:16;-7.70;99.90
15274;DHT22;7738;49.532;11.156;2022-12-18T08:01:46;-7.90;99.90
15274;DHT22;7738;49.532;11.156;2022-12-18T08:04:19;-7.60;99.90
15274;DHT22;7738;49.532;11.156;2022-12-18T08:06:49;-7.60;99.90
15274;DHT22;7738;49.532;11.156;2022-12-18T08:09:18;-7.60;99.90
15274;DHT22;7738;49.532;11.156;2022-12-18T08:11:49;-7.20;99.90
15274;DHT22;7738;49.532;11.156;2022-12-18T08:14:18;-7.40;99.90
15274;DHT22;7738;49.532;11.156;2022-12-18T08:16:48;-7.40;99.90
15274;DHT22;7738;49.532;11.156;2022-12-18T08:19:21;-7.40;99.90
15274;DHT22;7738;49.532;11.156;2022-12-18T08:21:51;-6.70;99.90
15274;DHT22;7738;49.532;11.156;2022-12-18T08:24:21;-7.30;99.90
15274;DHT22;7738;49.532;11.156;2022-12-18T08:26:51;-7.20;99.90
15274;DHT22;7738;49.532;11.156;2022-12-18T08:29:41;-7.20;99.90
15274;DHT22;7738;49.532;11.156;2022-12-18T08:32:11;-7.20;99.90
15274;DHT22;7738;49.532;11.156;2022-12-18T08:34:44;-7.10;99.90
15274;DHT22;7738;49.532;11.156;2022-12-18T08:37:14;-5.90;99.90
15274;DHT22;7738;49.532;11.156;2022-12-18T08:39:44;-6.80;99.90
15274;DHT22;7738;49.532;11.156;2022-12-18T08:42:13;-6.80;99.90
15274;DHT22;7738;49.532;11.156;2022-12-18T08:44:56;-5.50;99.90
15274;DHT22;7738;49.532;11.156;2022-12-18T08:47:26;-6.50;99.90
15274;DHT22;7738;49.532;11.156;2022-12-18T08:49:58;-6.70;99.90
15274;DHT22;7738;49.532;11.156;2022-12-18T08:52:28;-6.60;99.90
15274;DHT22;7738;49.532;11.156;2022-12-18T08:55:00;-6.60;99.90
15274;DHT22;7738;49.532;11.156;2022-12-18T08:57:30;-6.30;99.90
15274;DHT22;7738;49.532;11.156;2022-12-18T09:00:00;-6.50;99.90
15274;DHT22;7738;49.532;11.156;2022-12-18T09:02:30;-6.40;99.90
15274;DHT22;7738;49.532;11.156;2022-12-18T09:05:03;-6.50;99.90
15274;DHT22;7738;49.532;11.156;2022-12-18T09:07:33;-6.30;99.90
15274;DHT22;7738;49.532;11.156;2022-12-18T09:10:05;-6.40;99.90
15274;DHT22;7738;49.532;11.156;2022-12-18T09:12:35;-6.10;99.90
15274;DHT22;7738;49.532;11.156;2022-12-18T09:15:06;-6.10;99.90
15274;DHT22;7738;49.532;11.156;2022-12-18T09:20:10;-5.90;99.90
15274;DHT22;7738;49.532;11.156;2022-12-18T09:22:41;-5.90;99.90
15274;DHT22;7738;49.532;11.156;2022-12-18T09:25:10;-5.80;99.90
15274;DHT22;7738;49.532;11.156;2022-12-18T09:27:40;-3.90;99.90
15274;DHT22;7738;49.532;11.156;2022-12-18T09:30:11;-3.70;99.90
15274;DHT22;7738;49.532;11.156;2022-12-18T09:32:41;-5.60;99.90
15274;DHT22;7738;49.532;11.156;2022-12-18T09:35:13;-5.30;99.90
15274;DHT22;7738;49.532;11.156;2022-12-18T09:37:43;-5.50;99.90
15274;DHT22;7738;49.532;11.156;2022-12-18T09:40:15;-4.80;99.90
15274;DHT22;7738;49.532;11.156;2022-12-18T09:42:48;-4.60;99.90
15274;DHT22;7738;49.532;11.156;2022-12-18T09:45:21;-5.60;99.90
15274;DHT22;7738;49.532;11.156;2022-12-18T09:47:52;-5.60;99.90
15274;DHT22;7738;49.532;11.156;2022-12-18T09:50:32;-5.60;99.90
15274;DHT22;7738;49.532;11.156;2022-12-18T09:53:07;-5.50;99.90
15274;DHT22;7738;49.532;11.156;2022-12-18T09:55:42;-3.00;99.90
15274;DHT22;7738;49.532;11.156;2022-12-18T09:58:17;-5.20;99.90
15274;DHT22;7738;49.532;11.156;2022-12-18T10:00:51;-3.40;99.90
15274;DHT22;7738;49.532;11.156;2022-12-18T10:03:22;-3.80;99.90
15274;DHT22;7738;49.532;11.156;2022-12-18T10:06:08;-5.40;99.90
15274;DHT22;7738;49.532;11.156;2022-12-18T10:08:45;-5.30;99.90
15274;DHT22;7738;49.532;11.156;2022-12-18T10:11:31;-3.90;99.90
15274;DHT22;7738;49.532;11.156;2022-12-18T10:14:07;-5.20;99.90
15274;DHT22;7738;49.532;11.156;2022-12-18T10:16:45;-3.80;99.90
15274;DHT22;7738;49.532;11.156;2022-12-18T10:19:28;-5.10;99.90
15274;DHT22;7738;49.532;11.156;2022-12-18T10:22:11;-5.10;99.90
15274;DHT22;7738;49.532;11.156;2022-12-18T10:24:50;-5.00;99.90
15274;DHT22;7738;49.532;11.156;2022-12-18T10:27:26;-4.80;99.90
15274;DHT22;7738;49.532;11.156;2022-12-18T10:29:57;-4.00;99.90
15274;DHT22;7738;49.532;11.156;2022-12-18T10:32:29;-4.40;99.90
15274;DHT22;7738;49.532;11.156;2022-12-18T10:35:00;-4.50;99.90
15274;DHT22;7738;49.532;11.156;2022-12-18T10:37:32;-4.40;99.90
15274;DHT22;7738;49.532;11.156;2022-12-18T10:40:09;-4.20;99.90
15274;DHT22;7738;49.532;11.156;2022-12-18T10:43:03;-4.20;99.90
15274;DHT22;7738;49.532;11.156;2022-12-18T10:45:33;-4.10;99.90
15274;DHT22;7738;49.532;11.156;2022-12-18T10:48:04;-4.00;99.90
15274;DHT22;7738;49.532;11.156;2022-12-18T10:50:36;-4.00;99.90
15274;DHT22;7738;49.532;11.156;2022-12-18T10:53:31;-3.70;99.90
15274;DHT22;7738;49.532;11.156;2022-12-18T10:56:04;-3.50;99.90
15274;DHT22;7738;49.532;11.156;2022-12-18T10:58:36;-4.20;99.90
15274;DHT22;7738;49.532;11.156;2022-12-18T11:01:11;-4.30;99.90
15274;DHT22;7738;49.532;11.156;2022-12-18T11:03:44;-4.00;99.90
15274;DHT22;7738;49.532;11.156;2022-12-18T11:06:16;-3.80;99.90
15274;DHT22;7738;49.532;11.156;2022-12-18T11:08:58;-3.30;99.90
15274;DHT22;7738;49.532;11.156;2022-12-18T11:11:35;-3.00;99.90
15274;DHT22;7738;49.532;11.156;2022-12-18T11:14:14;-3.20;99.90
15274;DHT22;7738;49.532;11.156;2022-12-18T11:16:47;-3.30;99.90
15274;DHT22;7738;49.532;11.156;2022-12-18T11:19:38;-3.30;99.90
15274;DHT22;7738;49.532;11.156;2022-12-18T11:22:19;-3.10;99.90
15274;DHT22;7738;49.532;11.156;2022-12-18T11:24:58;-2.90;99.90
15274;DHT22;7738;49.532;11.156;2022-12-18T11:27:50;-3.20;99.90
15274;DHT22;7738;49.532;11.156;2022-12-18T11:30:23;-3.00;99.90
15274;DHT22;7738;49.532;11.156;2022-12-18T11:32:57;-3.00;99.90
15274;DHT22;7738;49.532;11.156;2022-12-18T11:35:37;-2.90;99.90
15274;DHT22;7738;49.532;11.156;2022-12-18T11:38:17;-2.90;99.90
15274;DHT22;7738;49.532;11.156;2022-12-18T11:40:56;-2.70;99.90
15274;DHT22;7738;49.532;11.156;2022-12-18T11:43:31;-2.70;99.90
15274;DHT22;7738;49.532;11.156;2022-12-18T11:46:05;-2.70;99.90
15274;DHT22;7738;49.532;11.156;2022-12-18T11:48:48;-2.70;99.90
15274;DHT22;7738;49.532;11.156;2022-12-18T11:51:25;-2.60;99.90
15274;DHT22;7738;49.532;11.156;2022-12-18T11:53:57;-2.50;99.90
15274;DHT22;7738;49.532;11.156;2022-12-18T11:56:33;-2.40;99.90
15274;DHT22;7738;49.532;11.156;2022-12-18T11:59:13;-2.30;99.90
15274;DHT22;7738;49.532;11.156;2022-12-18T12:01:50;-2.30;99.90
15274;DHT22;7738;49.532;11.156;2022-12-18T12:09:48;-2.40;99.90
15274;DHT22;7738;49.532;11.156;2022-12-18T12:12:31;-2.60;99.90
15274;DHT22;7738;49.532;11.156;2022-12-18T12:15:18;-2.60;99.90
15274;DHT22;7738;49.532;11.156;2022-12-18T12:17:53;-2.60;99.90
15274;DHT22;7738;49.532;11.156;2022-12-18T12:20:31;-2.60;99.90
15274;DHT22;7738;49.532;11.156;2022-12-18T12:23:13;-2.60;99.90
15274;DHT22;7738;49.532;11.156;2022-12-18T12:25:51;-2.60;99.90
15274;DHT22;7738;49.532;11.156;2022-12-18T12:28:36;-2.50;99.90
15274;DHT22;7738;49.532;11.156;2022-12-18T12:31:19;-1.80;99.90
15274;DHT22;7738;49.532;11.156;2022-12-18T12:33:58;-2.40;99.90
15274;DHT22;7738;49.532;11.156;2022-12-18T12:36:40;-2.30;99.90
15274;DHT22;7738;49.532;11.156;2022-12-18T12:39:13;-2.20;99.90
15274;DHT22;7738;49.532;11.156;2022-12-18T12:41:46;-2.00;99.90
15274;DHT22;7738;49.532;11.156;2022-12-18T12:44:34;-2.10;99.90
15274;DHT22;7738;49.532;11.156;2022-12-18T12:47:12;-2.20;99.90
15274;DHT22;7738;49.532;11.156;2022-12-18T12:49:45;-2.10;99.90
15274;DHT22;7738;49.532;11.156;2022-12-18T12:52:25;-2.20;99.90
15274;DHT22;7738;49.532;11.156;2022-12-18T12:54:58;-2.20;99.90
15274;DHT22;7738;49.532;11.156;2022-12-18T12:57:33;-2.30;99.90
15274;DHT22;7738;49.532;11.156;2022-12-18T13:00:10;-2.20;99.90
15274;DHT22;7738;49.532;11.156;2022-12-18T13:02:47;-2.20;99.90
15274;DHT22;7738;49.532;11.156;2022-12-18T13:05:25;-2.20;99.90
15274;DHT22;7738;49.532;11.156;2022-12-18T13:08:00;-2.30;99.90
15274;DHT22;7738;49.532;11.156;2022-12-18T13:10:35;-2.40;99.90
15274;DHT22;7738;49.532;11.156;2022-12-18T13:13:07;-2.40;99.90
15274;DHT22;7738;49.532;11.156;2022-12-18T13:15:43;-2.50;99.90
15274;DHT22;7738;49.532;11.156;2022-12-18T13:18:15;-2.30;99.90
15274;DHT22;7738;49.532;11.156;2022-12-18T13:20:49;-2.50;99.90
15274;DHT22;7738;49.532;11.156;2022-12-18T13:23:38;-2.50;99.90
15274;DHT22;7738;49.532;11.156;2022-12-18T13:26:30;-2.60;99.90
15274;DHT22;7738;49.532;11.156;2022-12-18T13:29:02;-2.60;99.90
15274;DHT22;7738;49.532;11.156;2022-12-18T13:34:43;-2.60;99.90
15274;DHT22;7738;49.532;11.156;2022-12-18T13:37:41;-2.60;99.90
15274;DHT22;7738;49.532;11.156;2022-12-18T13:43:37;-2.70;99.90
15274;DHT22;7738;49.532;11.156;2022-12-18T13:46:23;-2.70;99.90
15274;DHT22;7738;49.532;11.156;2022-12-18T13:49:00;-2.70;99.90
15274;DHT22;7738;49.532;11.156;2022-12-18T13:51:34;-2.80;99.90
15274;DHT22;7738;49.532;11.156;2022-12-18T13:54:05;-3.00;99.90
15274;DHT22;7738;49.532;11.156;2022-12-18T13:56:44;-2.90;99.90
15274;DHT22;7738;49.532;11.156;2022-12-18T13:59:20;-2.70;99.90
15274;DHT22;7738;49.532;11.156;2022-12-18T14:01:54;-3.50;99.90
15274;DHT22;7738;49.532;11.156;2022-12-18T14:04:26;-3.20;99.90
15274;DHT22;7738;49.532;11.156;2022-12-18T14:07:03;-3.30;99.90
15274;DHT22;7738;49.532;11.156;2022-12-18T14:09:36;-3.30;99.90
15274;DHT22;7738;49.532;11.156;2022-12-18T14:12:11;-3.40;99.90
15274;DHT22;7738;49.532;11.156;2022-12-18T14:14:56;-3.30;99.90
15274;DHT22;7738;49.532;11.156;2022-12-18T14:17:27;-3.00;99.90
15274;DHT22;7738;49.532;11.156;2022-12-18T14:19:58;-3.00;99.90
15274;DHT22;7738;49.532;11.156;2022-12-18T14:22:30;-3.20;99.90
15274;DHT22;7738;49.532;11.156;2022-12-18T14:25:17;-3.10;99.90
15274;DHT22;7738;49.532;11.156;2022-12-18T14:27:51;-3.40;99.90
15274;DHT22;7738;49.532;11.156;2022-12-18T14:30:30;-2.80;99.90
15274;DHT22;7738;49.532;11.156;2022-12-18T14:33:02;-3.70;99.90
15274;DHT22;7738;49.532;11.156;2022-12-18T14:35:34;-3.70;99.90
15274;DHT22;7738;49.532;11.156;2022-12-18T14:38:20;-3.80;99.90
15274;DHT22;7738;49.532;11.156;2022-12-18T14:41:00;-3.30;99.90
15274;DHT22;7738;49.532;11.156;2022-12-18T14:43:33;-3.40;99.90
15274;DHT22;7738;49.532;11.156;2022-12-18T14:46:05;-2.80;99.90
15274;DHT22;7738;49.532;11.156;2022-12-18T14:48:37;-3.80;99.90
15274;DHT22;7738;49.532;11.156;2022-12-18T14:51:17;-3.70;99.90
15274;DHT22;7738;49.532;11.156;2022-12-18T14:53:54;-4.00;99.90
15274;DHT22;7738;49.532;11.156;2022-12-18T14:56:27;-3.30;99.90
15274;DHT22;7738;49.532;11.156;2022-12-18T14:58:59;-3.30;99.90
15274;DHT22;7738;49.532;11.156;2022-12-18T15:01:33;-3.20;99.90
15274;DHT22;7738;49.532;11.156;2022-12-18T15:04:04;-3.40;99.90
15274;DHT22;7738;49.532;11.156;2022-12-18T15:06:37;-4.00;99.90
15274;DHT22;7738;49.532;11.156;2022-12-18T15:09:24;-4.50;99.90
15274;DHT22;7738;49.532;11.156;2022-12-18T15:11:57;-4.30;99.90
15274;DHT22;7738;49.532;11.156;2022-12-18T15:14:35;-4.70;99.90
15274;DHT22;7738;49.532;11.156;2022-12-18T15:17:16;-4.40;99.90
15274;DHT22;7738;49.532;11.156;2022-12-18T15:19:49;-3.60;99.90
15274;DHT22;7738;49.532;11.156;2022-12-18T15:22:26;-4.80;99.90
15274;DHT22;7738;49.532;11.156;2022-12-18T15:25:00;-4.90;99.90
15274;DHT22;7738;49.532;11.156;2022-12-18T15:27:32;-4.90;99.90
15274;DHT22;7738;49.532;11.156;2022-12-18T15:30:21;-5.00;99.90
15274;DHT22;7738;49.532;11.156;2022-12-18T15:32:52;-4.90;99.90
15274;DHT22;7738;49.532;11.156;2022-12-18T15:35:42;-5.00;99.90
15274;DHT22;7738;49.532;11.156;2022-12-18T15:38:13;-4.20;99.90
15274;DHT22;7738;49.532;11.156;2022-12-18T15:40:45;-5.10;99.90
15274;DHT22;7738;49.532;11.156;2022-12-18T15:43:15;-3.40;99.90
15274;DHT22;7738;49.532;11.156;2022-12-18T15:45:58;-5.40;99.90
15274;DHT22;7738;49.532;11.156;2022-12-18T15:48:28;-5.50;99.90
15274;DHT22;7738;49.532;11.156;2022-12-18T15:50:58;-5.40;99.90
15274;DHT22;7738;49.532;11.156;2022-12-18T15:53:30;-3.90;99.90
15274;DHT22;7738;49.532;11.156;2022-12-18T15:56:07;-5.40;99.90
15274;DHT22;7738;49.532;11.156;2022-12-18T15:58:52;-5.50;99.90
15274;DHT22;7738;49.532;11.156;2022-12-18T16:01:24;-5.60;99.90
15274;DHT22;7738;49.532;11.156;2022-12-18T16:03:55;-4.20;99.90
15274;DHT22;7738;49.532;11.156;2022-12-18T16:06:25;-5.40;99.90
15274;DHT22;7738;49.532;11.156;2022-12-18T16:09:15;-3.70;99.90
15274;DHT22;7738;49.532;11.156;2022-12-18T16:11:54;-5.60;99.90
15274;DHT22;7738;49.532;11.156;2022-12-18T16:14:27;-5.50;99.90
15274;DHT22;7738;49.532;11.156;2022-12-18T16:16:59;-3.70;99.90
15274;DHT22;7738;49.532;11.156;2022-12-18T16:19:30;-5.70;99.90
15274;DHT22;7738;49.532;11.156;2022-12-18T16:22:05;-5.70;99.90
15274;DHT22;7738;49.532;11.156;2022-12-18T16:24:40;-5.70;99.90
15274;DHT22;7738;49.532;11.156;2022-12-18T16:27:13;-5.70;99.90